Time;durP1;ratioP1;P1;durP2;ratioP2;P2;SDS_P1;SDS_P2;PMS_P1;PMS_P2;Temp;Humidity;BMP_temperature;BMP_pressure;BME280_temperature;BME280_humidity;BME280_pressure;Samples;Min_cycle;Max_cycle;Signal;HPM_P1;HPM_P2
2023/10/09 00:01:05;;;;;;;10.70;7.10;;;;;;;14.65;97.79;98763.84;4125084;28;20651;-87
2023/10/09 00:03:08;;;;;;;15.70;7.93;;;;;;;14.64;98.08;98772.72;4127567;28;20646;-87
2023/10/09 00:05:19;;;;;;;9.63;6.57;;;;;;;14.64;98.56;98772.72;4124871;28;20653;-87
2023/10/09 00:07:23;;;;;;;14.13;7.63;;;;;;;14.64;97.63;98772.72;4125457;28;20768;-87
2023/10/09 00:09:32;;;;;;;11.23;7.43;;;;;;;14.60;98.19;98771.25;4124326;28;21292;-87
2023/10/09 00:11:41;;;;;;;10.60;7.23;;;;;;;14.59;97.50;98766.94;4126370;28;20693;-87
2023/10/09 00:13:52;;;;;;;10.80;8.03;;;;;;;14.58;97.19;98767.03;4109516;28;20735;-87
2023/10/09 00:16:00;;;;;;;15.63;8.13;;;;;;;14.55;97.37;98756.78;4127190;28;21280;-87
2023/10/09 00:18:11;;;;;;;12.27;7.60;;;;;;;14.51;98.34;98749.22;4111181;28;20630;-87
2023/10/09 00:20:31;;;;;;;14.43;6.70;;;;;;;14.51;97.49;98757.09;4121244;28;20785;-87
2023/10/09 00:22:41;;;;;;;12.57;7.80;;;;;;;14.49;97.67;98751.16;4125001;28;20745;-87
2023/10/09 00:24:46;;;;;;;14.10;7.00;;;;;;;14.49;97.65;98762.47;4120220;28;20803;-87
2023/10/09 00:26:50;;;;;;;10.47;6.97;;;;;;;14.48;98.34;98754.72;4126189;28;20649;-87
2023/10/09 00:28:54;;;;;;;16.93;8.10;;;;;;;14.47;98.15;98753.88;4107510;28;21085;-87
2023/10/09 00:30:56;;;;;;;16.37;8.03;;;;;;;14.46;98.50;98756.63;4121465;28;21110;-87
2023/10/09 00:33:01;;;;;;;11.37;7.97;;;;;;;14.43;98.01;98751.59;4126042;28;20638;-87
2023/10/09 00:35:36;;;;;;;12.60;8.37;;;;;;;14.42;98.01;98752.56;4126045;28;21228;-87
2023/10/09 00:37:39;;;;;;;14.20;7.70;;;;;;;14.40;97.58;98746.56;4124047;28;20903;-87
2023/10/09 00:39:43;;;;;;;15.37;7.67;;;;;;;14.40;97.90;98746.56;4126261;28;21241;-87
2023/10/09 00:41:47;;;;;;;15.47;7.83;;;;;;;14.39;97.84;98744.91;4126365;28;20635;-87
2023/10/09 00:43:51;;;;;;;14.20;8.40;;;;;;;14.38;97.98;98743.22;4136355;28;20688;-87
2023/10/09 00:45:54;;;;;;;10.83;7.43;;;;;;;14.37;98.69;98745.03;4104627;28;21241;-87
2023/10/09 00:47:59;;;;;;;14.40;9.37;;;;;;;14.34;98.10;98745.25;4111152;28;20704;-87
2023/10/09 00:50:10;;;;;;;9.80;7.07;;;;;;;14.35;98.66;98743.44;4113126;28;20650;-87
2023/10/09 00:52:21;;;;;;;11.60;7.40;;;;;;;14.36;98.67;98739.88;4124460;28;21000;-87
2023/10/09 00:54:28;;;;;;;12.10;7.40;;;;;;;14.33;98.27;98735.69;4121081;28;20735;-87
2023/10/09 00:56:38;;;;;;;13.77;7.77;;;;;;;14.34;98.26;98739.13;4129319;28;20613;-87
2023/10/09 00:58:43;;;;;;;18.00;8.00;;;;;;;14.33;98.80;98737.47;4130236;28;20695;-87
2023/10/09 01:00:46;;;;;;;12.80;7.23;;;;;;;14.35;98.45;98730.31;4131999;28;20657;-87
2023/10/09 01:03:09;;;;;;;9.40;7.00;;;;;;;14.34;98.95;98733.88;4113049;28;20646;-87
2023/10/09 01:05:19;;;;;;;13.13;7.77;;;;;;;14.33;98.52;98733.06;4108909;28;20666;-87
2023/10/09 01:07:25;;;;;;;11.37;8.17;;;;;;;14.29;98.15;98723.72;4129600;28;20677;-87
2023/10/09 01:09:36;;;;;;;11.33;7.50;;;;;;;14.29;97.96;98722.91;4130575;28;20661;-87
2023/10/09 01:11:48;;;;;;;10.17;7.20;;;;;;;14.27;98.29;98727.44;4126345;28;20663;-87
2023/10/09 01:13:56;;;;;;;10.50;7.37;;;;;;;14.24;98.14;98720.59;4107465;28;20678;-87
2023/10/09 01:16:01;;;;;;;13.73;7.30;;;;;;;14.25;98.13;98714.41;4112561;28;20647;-89
2023/10/09 01:18:07;;;;;;;12.67;7.70;;;;;;;14.23;98.10;98713.66;4128974;28;20744;-89
2023/10/09 01:20:16;;;;;;;9.70;7.00;;;;;;;14.22;98.54;98717.28;4113256;28;20640;-89
2023/10/09 01:22:21;;;;;;;10.13;7.00;;;;;;;14.19;98.35;98711.38;4122721;28;20666;-89
2023/10/09 01:24:31;;;;;;;15.47;7.97;;;;;;;14.18;98.73;98712.34;4128831;28;20644;-88
2023/10/09 01:26:39;;;;;;;10.60;7.50;;;;;;;14.18;98.24;98715.81;4129612;28;20687;-89
2023/10/09 01:28:43;;;;;;;10.57;7.40;;;;;;;14.21;98.61;98712.13;4127280;28;20653;-89
2023/10/09 01:30:47;;;;;;;11.53;7.70;;;;;;;14.23;99.33;98721.53;4113695;28;20789;-89
2023/10/09 01:32:52;;;;;;;14.63;7.37;;;;;;;14.25;99.75;98714.41;4121698;28;20740;-89
2023/10/09 01:34:57;;;;;;;10.67;7.20;;;;;;;14.27;99.72;98722.19;4128386;28;20637;-89
2023/10/09 01:37:05;;;;;;;13.23;7.17;;;;;;;14.27;99.12;98715.13;4112490;28;21226;-88
2023/10/09 01:39:21;;;;;;;12.47;7.43;;;;;;;14.28;99.53;98710.72;4123756;28;20713;-89
2023/10/09 01:41:25;;;;;;;14.13;8.10;;;;;;;14.27;99.19;98714.31;4127220;28;20669;-88
2023/10/09 01:43:28;;;;;;;16.50;7.67;;;;;;;14.27;99.31;98711.69;4109941;28;20631;-88
2023/10/09 01:45:42;;;;;;;9.63;6.50;;;;;;;14.23;99.07;98713.66;4118729;28;20625;-88
2023/10/09 01:47:51;;;;;;;11.53;6.30;;;;;;;14.25;98.98;98713.56;4110583;28;20615;-89
2023/10/09 01:49:57;;;;;;;13.30;7.37;;;;;;;14.25;99.48;98703.06;4123873;28;22525;-89
2023/10/09 01:52:03;;;;;;;10.93;7.00;;;;;;;14.23;99.23;98700.56;4126328;28;20661;-89
2023/10/09 01:54:06;;;;;;;11.03;7.30;;;;;;;14.25;99.22;98705.69;4124425;28;21239;-89
2023/10/09 01:56:14;;;;;;;11.40;7.90;;;;;;;14.24;99.01;98699.63;4122200;28;20633;-89
2023/10/09 01:58:24;;;;;;;12.03;7.47;;;;;;;14.23;98.97;98697.09;4133849;28;20673;-89
2023/10/09 02:00:29;;;;;;;11.77;7.17;;;;;;;14.24;99.23;98693.53;4123205;28;20736;-89
2023/10/09 02:02:33;;;;;;;12.70;7.00;;;;;;;14.22;99.06;98696.28;4123393;28;20672;-89
2023/10/09 02:04:36;;;;;;;10.87;7.27;;;;;;;14.22;99.26;98688.41;4128424;28;20695;-89
2023/10/09 02:06:40;;;;;;;11.13;6.83;;;;;;;14.20;100.00;98695.53;4128252;28;20657;-89
2023/10/09 02:08:49;;;;;;;11.23;7.30;;;;;;;14.20;100.00;98692.09;4126024;28;21190;-89
2023/10/09 02:10:55;;;;;;;10.67;6.77;;;;;;;14.22;100.00;98700.66;4122346;28;20762;-89
2023/10/09 02:13:00;;;;;;;11.83;7.20;;;;;;;14.22;100.00;98703.28;4125043;28;20630;-89
2023/10/09 02:15:15;;;;;;;12.10;7.00;;;;;;;14.24;100.00;98699.63;4135150;28;20638;-88
2023/10/09 02:17:19;;;;;;;13.43;7.77;;;;;;;14.22;100.00;98695.41;4107722;28;20643;-89
2023/10/09 02:19:31;;;;;;;12.43;8.30;;;;;;;14.23;100.00;98691.84;4124326;28;21014;-88
2023/10/09 02:21:39;;;;;;;12.10;8.57;;;;;;;14.21;100.00;98689.34;4114008;28;20677;-89
2023/10/09 02:23:46;;;;;;;15.47;7.37;;;;;;;14.22;100.00;98695.41;4124491;28;21071;-88
2023/10/09 02:25:53;;;;;;;12.03;7.93;;;;;;;14.20;100.00;98695.53;4126256;28;20668;-87
2023/10/09 02:27:59;;;;;;;17.07;8.60;;;;;;;14.20;99.84;98697.31;4114780;28;20639;-87
2023/10/09 02:30:15;;;;;;;12.27;7.37;;;;;;;14.18;100.00;98694.81;4108064;28;20674;-86
2023/10/09 02:32:27;;;;;;;12.50;7.03;;;;;;;14.18;100.00;98696.63;4110906;28;20663;-87
2023/10/09 02:34:29;;;;;;;16.17;7.87;;;;;;;14.18;99.81;98692.19;4121505;28;21051;-87
2023/10/09 02:36:34;;;;;;;12.20;7.53;;;;;;;14.18;99.06;98689.56;4124447;28;20691;-87
2023/10/09 02:38:41;;;;;;;13.13;10.23;;;;;;;14.17;99.90;98687.06;4125692;28;20631;-87
2023/10/09 02:41:14;;;;;;;11.83;8.03;;;;;;;14.16;100.00;98685.38;4108124;28;20643;-87
2023/10/09 02:43:18;;;;;;;12.03;7.77;;;;;;;14.17;100.00;98684.44;4115755;28;20739;-86
2023/10/09 02:45:28;;;;;;;13.83;8.00;;;;;;;14.16;100.00;98678.34;4143801;28;20685;-87
2023/10/09 02:47:39;;;;;;;13.77;7.43;;;;;;;14.17;100.00;98679.19;4125827;28;20630;-87
2023/10/09 02:49:42;;;;;;;14.70;8.00;;;;;;;14.15;100.00;98678.47;4126383;28;21668;-87
2023/10/09 02:51:47;;;;;;;13.33;7.50;;;;;;;14.14;99.82;98675.00;4125744;28;20657;-87
2023/10/09 02:53:51;;;;;;;11.27;8.20;;;;;;;14.16;99.88;98678.34;4127544;28;20649;-87
2023/10/09 02:56:11;;;;;;;9.73;7.03;;;;;;;14.16;100.00;98680.13;4115038;28;20639;-87
2023/10/09 02:58:20;;;;;;;11.23;7.93;;;;;;;14.16;100.00;98680.97;4127838;28;21415;-87
2023/10/09 03:00:31;;;;;;;12.47;8.00;;;;;;;14.15;100.00;98681.09;4108181;28;20675;-87
2023/10/09 03:02:39;;;;;;;12.30;7.80;;;;;;;14.14;100.00;98675.00;4113556;28;20631;-87
2023/10/09 03:04:43;;;;;;;10.43;8.13;;;;;;;14.15;100.00;98681.09;4129157;28;20645;-87
2023/10/09 03:06:49;;;;;;;12.03;7.90;;;;;;;14.11;100.00;98676.19;4119188;28;20634;-87
2023/10/09 03:08:54;;;;;;;12.80;7.90;;;;;;;14.10;99.85;98674.50;4110165;28;20623;-87
2023/10/09 03:11:00;;;;;;;10.13;7.70;;;;;;;14.10;100.00;98677.94;4129798;28;20618;-87
2023/10/09 03:13:05;;;;;;;15.50;8.53;;;;;;;14.10;100.00;98670.06;4124283;28;20641;-87
2023/10/09 03:15:08;;;;;;;13.30;8.30;;;;;;;14.09;100.00;98663.19;4124538;28;20634;-87
2023/10/09 03:17:12;;;;;;;13.50;7.93;;;;;;;14.08;100.00;98666.75;4141263;28;20630;-87
2023/10/09 03:19:17;;;;;;;15.93;9.00;;;;;;;14.10;100.00;98664.00;4122498;28;20642;-87
2023/10/09 03:21:21;;;;;;;11.73;8.03;;;;;;;14.11;99.88;98670.94;4109171;28;20632;-87
2023/10/09 03:23:24;;;;;;;13.03;8.07;;;;;;;14.14;100.00;98671.53;4109407;28;21109;-87
2023/10/09 03:25:28;;;;;;;12.90;8.47;;;;;;;14.15;100.00;98667.97;4125228;28;20623;-87
2023/10/09 03:27:31;;;;;;;9.73;7.10;;;;;;;14.15;100.00;98674.06;4122179;28;20765;-87
2023/10/09 03:29:35;;;;;;;13.27;7.90;;;;;;;14.14;100.00;98667.13;4104849;28;21037;-87
2023/10/09 03:31:38;;;;;;;11.27;7.63;;;;;;;14.12;100.00;98665.59;4126370;28;21254;-87
2023/10/09 03:33:41;;;;;;;13.40;7.43;;;;;;;14.11;100.00;98666.50;4108367;28;20627;-87
2023/10/09 03:35:46;;;;;;;11.30;7.77;;;;;;;14.10;100.00;98661.38;4120437;28;20630;-87
2023/10/09 03:37:49;;;;;;;12.63;7.53;;;;;;;14.08;99.76;98655.41;4124650;28;20636;-87
2023/10/09 03:39:54;;;;;;;11.10;7.13;;;;;;;14.08;100.00;98658.88;4111548;28;20651;-87
2023/10/09 03:41:58;;;;;;;26.07;9.30;;;;;;;14.10;100.00;98656.13;4124766;28;21005;-87
2023/10/09 03:44:01;;;;;;;13.20;8.00;;;;;;;14.12;100.00;98665.59;4109607;28;20627;-87
2023/10/09 03:46:05;;;;;;;12.57;8.10;;;;;;;14.14;100.00;98653.19;4110550;28;20614;-87
2023/10/09 03:48:14;;;;;;;13.90;7.73;;;;;;;14.17;100.00;98656.41;4128416;28;20665;-87
2023/10/09 03:50:26;;;;;;;17.57;9.20;;;;;;;14.15;99.56;98657.47;4113360;28;21006;-87
2023/10/09 03:52:31;;;;;;;10.73;7.77;;;;;;;14.16;99.93;98651.25;4122504;28;21036;-87
2023/10/09 03:54:35;;;;;;;13.30;8.43;;;;;;;14.17;99.85;98655.56;4108740;28;20743;-87
2023/10/09 03:56:38;;;;;;;13.43;8.33;;;;;;;14.19;100.00;98659.78;4109145;28;20693;-87
2023/10/09 03:58:44;;;;;;;14.77;8.90;;;;;;;14.21;100.00;98667.53;4122732;28;20709;-87
2023/10/09 04:00:49;;;;;;;11.67;8.40;;;;;;;14.19;99.53;98651.91;4122704;28;20638;-86
2023/10/09 04:02:52;;;;;;;13.87;7.90;;;;;;;14.16;99.75;98660.00;4121137;28;20650;-87
2023/10/09 04:04:55;;;;;;;13.87;8.97;;;;;;;14.16;98.68;98656.50;4141279;28;20636;-87
2023/10/09 04:06:59;;;;;;;14.67;8.33;;;;;;;14.14;99.04;98658.44;4123940;28;20634;-87
2023/10/09 04:09:26;;;;;;;16.33;9.20;;;;;;;14.12;99.25;98662.09;4119780;28;20681;-87
2023/10/09 04:11:29;;;;;;;13.20;8.67;;;;;;;14.11;99.39;98668.31;4122993;28;20645;-87
2023/10/09 04:13:36;;;;;;;12.40;8.40;;;;;;;14.09;100.00;98657.94;4125797;28;20648;-87
2023/10/09 04:15:42;;;;;;;14.33;7.60;;;;;;;14.07;99.97;98662.44;4108759;28;21370;-87
2023/10/09 04:17:47;;;;;;;14.53;8.50;;;;;;;14.05;99.63;98666.97;4109923;28;20640;-87
2023/10/09 04:20:30;;;;;;;12.70;7.90;;;;;;;14.03;98.94;98658.34;4126979;28;20652;-87
2023/10/09 04:22:25;;;;;;;12.60;9.10;;;;;;;14.06;99.94;98660.78;4125319;28;20668;-87
2023/10/09 04:24:41;;;;;;;12.07;7.90;;;;;;;14.07;100.00;98666.84;4126745;28;20637;-86
2023/10/09 04:26:44;;;;;;;14.33;8.30;;;;;;;14.07;100.00;98658.97;4141789;28;20648;-86
2023/10/09 04:28:51;;;;;;;12.30;7.90;;;;;;;14.07;99.86;98665.06;4117233;28;20733;-87
2023/10/09 04:30:55;;;;;;;11.83;8.20;;;;;;;14.04;99.99;98659.19;4124654;28;21295;-87
2023/10/09 04:33:05;;;;;;;16.63;8.60;;;;;;;14.10;99.86;98659.59;4126646;28;20746;-87
2023/10/09 04:35:23;;;;;;;12.50;8.40;;;;;;;14.05;99.86;98661.72;4125582;28;21221;-87
2023/10/09 04:37:37;;;;;;;14.53;7.93;;;;;;;14.03;100.00;98668.84;4123636;28;20649;-87
2023/10/09 04:39:47;;;;;;;14.03;8.33;;;;;;;14.02;99.85;98653.22;4120566;28;20693;-87
2023/10/09 04:41:59;;;;;;;11.90;7.90;;;;;;;14.01;100.00;98665.50;4109186;28;21024;-87
2023/10/09 04:44:18;;;;;;;13.57;7.70;;;;;;;14.02;100.00;98659.28;4125973;28;20667;-87
2023/10/09 04:46:23;;;;;;;11.57;8.10;;;;;;;14.01;99.75;98664.63;4125773;28;20633;-86
2023/10/09 04:48:37;;;;;;;11.40;7.93;;;;;;;13.99;99.85;98663.94;4120332;28;20645;-87
2023/10/09 04:51:10;;;;;;;9.80;7.43;;;;;;;13.99;99.74;98662.13;4123280;28;20740;-87
2023/10/09 04:53:22;;;;;;;14.07;8.60;;;;;;;13.94;99.59;98659.00;4124031;28;21273;-87
2023/10/09 04:55:27;;;;;;;13.20;8.30;;;;;;;13.91;99.67;98664.47;4139499;28;20679;-89
2023/10/09 04:57:29;;;;;;;12.37;8.03;;;;;;;13.90;100.00;98660.16;4108197;28;21523;-87
2023/10/09 04:59:45;;;;;;;16.20;10.30;;;;;;;13.90;99.90;98654.09;4125822;28;21249;-87
2023/10/09 05:01:58;;;;;;;12.17;7.33;;;;;;;13.88;100.00;98656.84;4138805;28;20692;-87
2023/10/09 05:04:04;;;;;;;16.83;8.00;;;;;;;13.87;99.93;98656.94;4124045;28;20723;-87
2023/10/09 05:06:21;;;;;;;13.00;8.67;;;;;;;13.86;99.49;98645.63;4105441;28;21058;-87
2023/10/09 05:08:28;;;;;;;12.37;8.30;;;;;;;13.86;100.00;98650.88;4126940;28;20645;-87
2023/10/09 05:10:33;;;;;;;12.20;7.30;;;;;;;13.88;100.00;98654.22;4122626;28;20650;-87
2023/10/09 05:12:41;;;;;;;15.67;8.33;;;;;;;13.88;100.00;98656.84;4125904;28;20661;-87
2023/10/09 05:15:06;;;;;;;13.60;8.50;;;;;;;13.89;100.00;98658.53;4127242;28;20633;-87
2023/10/09 05:17:15;;;;;;;12.40;7.70;;;;;;;13.91;100.00;98661.03;4136922;28;20660;-87
2023/10/09 05:19:33;;;;;;;13.03;8.70;;;;;;;13.89;100.00;98662.91;4125010;28;20633;-86
2023/10/09 05:21:44;;;;;;;18.33;12.00;;;;;;;13.86;100.00;98660.50;4121266;28;20720;-86
2023/10/09 05:24:10;;;;;;;17.00;9.50;;;;;;;13.86;100.00;98661.38;4135671;28;20975;-86
2023/10/09 05:26:37;;;;;;;13.57;8.47;;;;;;;13.87;100.00;98651.69;4119801;28;20986;-87
2023/10/09 05:28:52;;;;;;;14.00;8.50;;;;;;;13.88;100.00;98654.22;4122850;28;20726;-86
2023/10/09 05:31:02;;;;;;;12.87;8.77;;;;;;;13.89;100.00;98655.03;4119664;28;21078;-86
2023/10/09 05:35:40;;;;;;;13.20;8.00;;;;;;;13.89;100.00;98658.53;4110796;28;20626;-86
2023/10/09 05:37:45;;;;;;;15.37;7.60;;;;;;;13.84;99.88;98658.00;4125230;28;20629;-86
2023/10/09 05:40:10;;;;;;;14.43;7.90;;;;;;;13.82;99.85;98665.13;4139284;28;21075;-86
2023/10/09 05:42:18;;;;;;;15.87;9.83;;;;;;;13.76;99.74;98676.06;4136173;28;20628;-86
2023/10/09 05:47:22;;;;;;;12.93;7.97;;;;;;;13.75;99.86;98674.38;4110140;28;20630;-86
2023/10/09 05:49:19;;;;;;;12.40;8.30;;;;;;;13.74;100.00;98672.72;4121203;28;20626;-86
2023/10/09 06:03:34;;;;;;;12.47;9.00;;;;;;;13.87;100.00;98681.38;4110425;28;20631;-88
2023/10/09 06:05:41;;;;;;;12.50;8.50;;;;;;;13.92;100.00;98675.78;4116190;28;20637;-88
2023/10/09 06:08:04;;;;;;;18.33;8.00;;;;;;;13.94;100.00;98680.00;4110603;28;20696;-88
2023/10/09 06:10:17;;;;;;;14.93;8.27;;;;;;;13.98;100.00;98677.97;4113901;28;20622;-88
2023/10/09 06:15:50;;;;;;;11.93;8.10;;;;;;;14.04;100.00;98695.91;4206026;27;1262418;-87
2023/10/09 06:17:58;;;;;;;12.77;7.90;;;;;;;14.07;100.00;98688.66;4220353;28;20286;-88
2023/10/09 06:20:39;;;;;;;12.70;7.93;;;;;;;14.09;100.00;98704.28;4236814;28;20655;-88
2023/10/09 06:24:57;;;;;;;13.23;7.67;;;;;;;14.10;100.00;98691.06;4223055;28;21206;-89
2023/10/09 06:27:12;;;;;;;11.27;7.27;;;;;;;14.11;100.00;98690.13;4242623;28;20681;-88
2023/10/09 06:29:30;;;;;;;11.30;7.17;;;;;;;14.13;100.00;98707.44;4238868;27;20620;-89
2023/10/09 06:31:57;;;;;;;15.70;7.63;;;;;;;14.12;100.00;98704.06;4196553;28;20685;-88
2023/10/09 06:34:16;;;;;;;13.70;8.13;;;;;;;14.13;100.00;98700.50;4215372;28;20665;-87
2023/10/09 06:36:18;;;;;;;15.73;8.33;;;;;;;14.17;100.00;98697.56;4212127;28;20660;-88
2023/10/09 06:38:23;;;;;;;11.50;8.60;;;;;;;14.20;100.00;98698.16;4191216;28;21464;-88
2023/10/09 06:42:51;;;;;;;13.90;9.30;;;;;;;14.27;100.00;98703.81;4210338;28;20732;-88
2023/10/09 06:44:56;;;;;;;12.50;8.60;;;;;;;14.28;100.00;98711.56;4200021;28;20642;-88
2023/10/09 06:47:08;;;;;;;14.97;8.03;;;;;;;14.27;100.00;98714.31;4214045;28;20620;-88
2023/10/09 06:51:43;;;;;;;14.70;9.00;;;;;;;14.32;100.00;98712.19;4231343;28;20636;-89
2023/10/09 06:54:06;;;;;;;13.33;9.30;;;;;;;14.31;100.00;98706.09;4226708;28;20655;-88
2023/10/09 06:56:23;;;;;;;15.83;8.93;;;;;;;14.33;100.00;98719.13;4197148;28;20635;-88
2023/10/09 06:58:27;;;;;;;17.90;9.20;;;;;;;14.36;100.00;98721.50;4213477;28;20629;-88
2023/10/09 07:01:00;;;;;;;13.30;8.97;;;;;;;14.39;100.00;98719.50;4199120;28;20669;-88
2023/10/09 07:03:11;;;;;;;14.57;9.27;;;;;;;14.45;100.00;98710.31;4228658;27;21256;-88
2023/10/09 07:05:17;;;;;;;14.30;8.70;;;;;;;14.48;100.00;98704.84;4212994;28;20627;-86
2023/10/09 07:07:20;;;;;;;14.63;8.60;;;;;;;14.52;100.00;98714.16;4230342;27;21073;-86
2023/10/09 07:09:27;;;;;;;14.90;9.90;;;;;;;14.55;100.00;98714.75;4215047;28;20631;-86
2023/10/09 07:13:55;;;;;;;14.80;9.37;;;;;;;14.61;100.00;98722.19;4188236;28;21696;-86
2023/10/09 07:18:49;;;;;;;13.97;8.67;;;;;;;14.67;100.00;98722.59;4198582;28;20632;-86
2023/10/09 07:21:11;;;;;;;12.97;9.27;;;;;;;14.72;100.00;98711.75;4229787;27;20964;-86
2023/10/09 07:23:13;;;;;;;17.13;9.07;;;;;;;14.79;100.00;98713.81;4215493;28;20633;-86
2023/10/09 07:25:27;;;;;;;20.40;10.00;;;;;;;14.82;100.00;98708.28;4188032;28;21419;-87
2023/10/09 07:27:44;;;;;;;18.47;9.90;;;;;;;14.88;100.00;98707.81;4217513;28;20620;-87
2023/10/09 07:29:48;;;;;;;13.87;8.63;;;;;;;14.91;100.00;98718.09;4201849;28;20637;-87
2023/10/09 07:31:58;;;;;;;16.40;9.47;;;;;;;14.94;99.82;98727.56;4187281;28;20640;-87
2023/10/09 07:34:30;;;;;;;11.27;8.77;;;;;;;14.97;100.00;98720.25;4206496;28;20658;-87
2023/10/09 07:36:37;;;;;;;16.23;8.63;;;;;;;15.05;100.00;98719.69;4199608;28;20633;-87
2023/10/09 07:38:44;;;;;;;13.60;9.47;;;;;;;15.10;100.00;98724.47;4197206;28;20631;-87
2023/10/09 07:40:56;;;;;;;16.40;8.63;;;;;;;15.18;100.00;98723.91;4199507;28;20725;-87
2023/10/09 07:43:04;;;;;;;13.63;8.80;;;;;;;15.26;100.00;98721.53;4221228;27;20998;-87
2023/10/09 07:45:54;;;;;;;16.37;8.87;;;;;;;15.31;100.00;98729.94;4207339;28;20626;-87
2023/10/09 07:49:58;;;;;;;13.80;9.20;;;;;;;15.35;99.61;98733.97;4190015;28;20675;-87
2023/10/09 07:52:01;;;;;;;15.50;10.67;;;;;;;15.30;100.00;98734.31;4186740;28;20625;-87
2023/10/09 07:54:07;;;;;;;17.43;10.20;;;;;;;15.30;100.00;98731.69;4202779;28;20626;-86
2023/10/09 07:56:13;;;;;;;19.20;10.33;;;;;;;15.38;99.50;98737.22;4205351;28;20633;-84
2023/10/09 07:58:16;;;;;;;15.17;9.70;;;;;;;15.47;100.00;98739.16;4189521;28;20665;-86
2023/10/09 08:01:05;;;;;;;19.07;10.90;;;;;;;15.52;99.89;98742.25;4220365;28;20715;-87
2023/10/09 08:03:09;;;;;;;16.20;9.47;;;;;;;15.60;100.00;98740.66;4183355;28;20627;-87
2023/10/09 08:05:19;;;;;;;16.63;11.00;;;;;;;15.67;100.00;98747.13;4193019;28;21250;-87
2023/10/09 08:07:25;;;;;;;14.70;9.33;;;;;;;15.74;100.00;98743.09;4187183;28;20618;-87
2023/10/09 08:09:49;;;;;;;16.57;9.23;;;;;;;15.78;100.00;98739.22;4219163;28;21031;-87
2023/10/09 08:12:38;;;;;;;15.47;9.47;;;;;;;15.83;100.00;98742.38;4186041;28;20690;-87
2023/10/09 08:14:43;;;;;;;10.50;8.67;;;;;;;15.87;100.00;98741.16;4222611;28;20755;-86
2023/10/09 08:16:46;;;;;;;15.83;8.90;;;;;;;15.93;100.00;98748.56;4217908;28;20633;-88
2023/10/09 08:18:51;;;;;;;14.93;8.90;;;;;;;15.95;100.00;98749.28;4215393;28;20981;-88
2023/10/09 08:23:28;;;;;;;15.73;8.90;;;;;;;16.03;100.00;98752.97;4214133;28;20621;-89
2023/10/09 08:25:31;;;;;;;17.00;9.30;;;;;;;16.10;99.72;98766.47;4218244;28;20716;-88
2023/10/09 08:27:55;;;;;;;18.70;8.67;;;;;;;16.16;100.00;98761.56;4190829;28;20635;-89
2023/10/09 08:30:28;;;;;;;16.20;9.00;;;;;;;16.23;99.36;98769.84;4184415;28;20648;-89
2023/10/09 08:32:40;;;;;;;17.00;8.37;;;;;;;16.28;100.00;98768.53;4216007;28;20625;-87
2023/10/09 08:34:48;;;;;;;18.00;8.80;;;;;;;16.36;100.00;98754.75;4185890;28;21630;-89
2023/10/09 08:36:56;;;;;;;16.13;9.03;;;;;;;16.43;100.00;98764.63;4196227;28;20732;-88
2023/10/09 08:39:01;;;;;;;26.23;13.97;;;;;;;16.47;100.00;98760.78;4204713;28;20629;-88
2023/10/09 08:41:15;;;;;;;18.70;8.53;;;;;;;16.54;100.00;98756.72;4199666;28;21105;-89
2023/10/09 08:43:20;;;;;;;14.23;9.67;;;;;;;16.57;100.00;98754.66;4203025;28;20624;-89
2023/10/09 08:45:24;;;;;;;19.50;11.20;;;;;;;16.56;100.00;98758.25;4215155;28;21047;-89
2023/10/09 08:47:28;;;;;;;24.40;10.60;;;;;;;16.57;100.00;98757.28;4202792;28;20799;-88
2023/10/09 08:49:33;;;;;;;25.23;11.20;;;;;;;16.60;100.00;98767.56;4202596;28;20690;-89
2023/10/09 08:51:36;;;;;;;21.60;11.73;;;;;;;16.63;100.00;98774.41;4203101;28;20638;-88
2023/10/09 08:53:42;;;;;;;19.53;9.90;;;;;;;16.72;99.92;98779.75;4220255;28;20629;-88
2023/10/09 08:55:46;;;;;;;18.63;9.93;;;;;;;16.76;99.48;98786.41;4201573;28;20653;-88
2023/10/09 08:57:52;;;;;;;18.50;10.53;;;;;;;16.85;100.00;98780.41;4202464;28;20629;-88
2023/10/09 08:59:56;;;;;;;20.93;10.60;;;;;;;16.97;99.83;98789.94;4204637;28;20666;-88
2023/10/09 09:01:59;;;;;;;15.87;9.50;;;;;;;17.07;99.58;98789.03;4204137;28;20992;-89
2023/10/09 09:04:03;;;;;;;15.17;9.13;;;;;;;17.18;99.68;98786.34;4218172;28;21006;-86
2023/10/09 09:06:06;;;;;;;21.20;9.87;;;;;;;17.25;99.43;98784.91;4199911;28;20627;-87
2023/10/09 09:08:24;;;;;;;15.60;7.57;;;;;;;17.32;98.84;98786.06;4204553;28;20624;-91
2023/10/09 09:10:36;;;;;;;21.93;8.33;;;;;;;17.36;99.66;98784.00;4200712;28;20633;-89
2023/10/09 09:12:40;;;;;;;22.13;8.83;;;;;;;17.42;99.42;98778.22;4196289;28;20635;-89
2023/10/09 09:14:44;;;;;;;18.63;8.70;;;;;;;17.50;100.00;98781.88;4197606;28;20647;-89
2023/10/09 09:16:49;;;;;;;17.43;7.70;;;;;;;17.57;99.94;98785.66;4208370;28;20665;-89
2023/10/09 09:19:00;;;;;;;17.47;8.73;;;;;;;17.62;99.52;98797.50;4205001;28;20656;-89
2023/10/09 09:21:21;;;;;;;21.47;9.07;;;;;;;17.52;98.11;98791.31;4203551;28;20648;-88
2023/10/09 09:23:26;;;;;;;13.43;8.47;;;;;;;17.46;98.73;98798.09;4198584;28;20613;-90
2023/10/09 09:25:43;;;;;;;19.50;8.87;;;;;;;17.49;98.69;98796.84;4191744;28;20605;-89
2023/10/09 09:27:52;;;;;;;13.17;8.67;;;;;;;17.58;98.77;98796.06;4196251;28;20646;-89
2023/10/09 09:29:56;;;;;;;23.00;10.50;;;;;;;17.71;98.94;98794.06;4213613;27;20643;-89
2023/10/09 09:31:58;;;;;;;15.67;10.40;;;;;;;17.83;99.71;98795.66;4187540;28;20965;-89
2023/10/09 09:34:16;;;;;;;17.30;9.07;;;;;;;17.94;99.39;98801.69;4206419;28;20687;-89
2023/10/09 09:36:23;;;;;;;13.60;8.77;;;;;;;18.17;98.83;98802.34;4201303;28;21215;-88
2023/10/09 09:38:28;;;;;;;16.93;9.87;;;;;;;18.39;97.35;98796.84;4180897;28;20638;-89
2023/10/09 09:40:31;;;;;;;14.23;8.30;;;;;;;18.55;95.99;98798.84;4200106;28;20674;-89
2023/10/09 09:42:40;;;;;;;19.97;9.27;;;;;;;18.73;97.80;98801.63;4197138;28;21317;-88
2023/10/09 09:44:43;;;;;;;20.13;7.70;;;;;;;18.89;96.45;98797.47;4185418;28;20628;-89
2023/10/09 09:46:46;;;;;;;16.00;6.30;;;;;;;19.09;94.13;98791.25;4181935;28;20618;-89
2023/10/09 09:48:54;;;;;;;11.80;4.93;;;;;;;19.28;90.86;98786.78;4179255;28;21205;-88
2023/10/09 09:50:57;;;;;;;19.27;5.80;;;;;;;19.49;88.27;98790.91;4216491;28;20618;-89
2023/10/09 09:53:00;;;;;;;17.80;5.30;;;;;;;19.72;87.74;98788.78;4213157;28;20625;-88
2023/10/09 09:55:04;;;;;;;15.07;6.43;;;;;;;19.94;85.62;98803.34;4204390;28;20641;-89
2023/10/09 09:57:12;;;;;;;16.90;7.07;;;;;;;20.04;84.15;98796.22;4190527;28;20655;-88
2023/10/09 09:59:21;;;;;;;22.80;7.80;;;;;;;20.19;87.17;98800.06;4199812;28;20632;-88
2023/10/09 10:01:27;;;;;;;21.03;7.17;;;;;;;20.32;86.10;98798.72;4214145;28;20660;-89
2023/10/09 10:03:35;;;;;;;15.20;6.70;;;;;;;20.54;85.22;98802.78;4205934;28;20679;-89
2023/10/09 10:05:40;;;;;;;16.53;6.53;;;;;;;20.71;84.03;98805.50;4205074;28;20635;-89
2023/10/09 10:07:43;;;;;;;15.27;5.90;;;;;;;20.89;82.61;98803.69;4182575;28;21342;-89
2023/10/09 10:09:54;;;;;;;11.33;6.57;;;;;;;21.07;79.97;98796.56;4186624;28;20641;-89
2023/10/09 10:12:04;;;;;;;19.93;6.13;;;;;;;21.13;79.12;98799.44;4199173;28;20627;-89
2023/10/09 10:14:11;;;;;;;9.30;5.07;;;;;;;21.14;79.32;98797.59;4200786;28;20649;-89
2023/10/09 10:16:20;;;;;;;13.30;5.37;;;;;;;21.13;79.06;98790.66;4188754;28;20645;-89
2023/10/09 10:18:23;;;;;;;15.10;5.13;;;;;;;21.15;78.25;98788.66;4187518;28;20635;-89
2023/10/09 10:20:31;;;;;;;17.40;4.37;;;;;;;21.17;78.22;98784.88;4194287;28;20626;-88
2023/10/09 10:22:37;;;;;;;14.80;5.00;;;;;;;21.19;78.74;98785.56;4202506;28;20639;-89
2023/10/09 10:24:52;;;;;;;17.33;5.17;;;;;;;21.26;78.31;98788.44;4203002;28;21272;-89
2023/10/09 10:27:23;;;;;;;13.77;5.38;;;;;;;21.30;77.04;98778.19;4181396;28;20775;-89
2023/10/09 10:29:32;;;;;;;17.17;5.73;;;;;;;21.40;77.62;98770.13;4186446;28;20306;-89
2023/10/09 10:32:00;;;;;;;16.10;4.70;;;;;;;21.50;77.52;98774.41;4216208;28;20658;-89
2023/10/09 10:34:06;;;;;;;14.10;4.73;;;;;;;21.61;77.08;98782.09;4185485;28;20984;-89
2023/10/09 10:36:15;;;;;;;11.63;4.67;;;;;;;21.63;75.83;98774.78;4197379;28;20652;-87